Ventura — V2GM2 — position and weather

sailwx.info

Track history (hours):
 
Tides and Currents Weather Stations Pressure Air Temp Water Temp Dewpoint Dewpoint Depression Visibility Wind Speed Wind Dir Waves Ship Positions

Ventura

Last reported at 2017-Oct-18 12:31 UTC. Time now 2017-Oct-18 12:51 UTC.
Position N 36°50' E 013°49'.

Length 106 m; draft 6.3 m.

Type: Cargo ship. MMSI: 305994000.

Date/timePositionNaut miles runAvg speedWind from/ knotsBaromVisibWave heightAir tempDewpointWater temp
2017-Oct-18 12:31N 36°50' E 013°49'610.5
2017-Oct-18 11:58N 36°51' E 013°42'  
2017-Oct-16 07:28N 36°58' E 002°25'1510.3
2017-Oct-16 06:02N 36°55' E 002°06'110.3
2017-Oct-16 05:57N 36°55' E 002°05'68 9.8
2017-Oct-15 23:02N 36°44' E 000°41'0 9.4
2017-Oct-15 23:00N 36°44' E 000°41'5 9.5
2017-Oct-15 22:31N 36°44' E 000°35'10 9.7
2017-Oct-15 21:29N 36°42' E 000°23'11 9.7
2017-Oct-15 20:21N 36°40' E 000°09'3 9.8
2017-Oct-15 20:00N 36°40' E 000°05'26 9.9
2017-Oct-15 17:21N 36°36' W 000°27'3 9.8
2017-Oct-15 17:00N 36°35' W 000°31'5 9.8
2017-Oct-15 16:30N 36°34' W 000°37'5 9.7
2017-Oct-15 16:00N 36°34' W 000°43'21910.0
2017-Oct-14 18:09N 35°60' W 005°12'211.7
2017-Oct-14 18:00N 35°59' W 005°14'611.9
2017-Oct-14 17:31N 35°58' W 005°22'611.3
2017-Oct-14 17:00N 35°57' W 005°28'21 9.8
2017-Oct-14 14:53N 35°54' W 005°54'68 9.9
2017-Oct-14 08:00N 36°07' W 007°16'5 9.6
2017-Oct-14 07:29N 36°09' W 007°22'5 9.4
2017-Oct-14 06:58N 36°10' W 007°28'6 9.6
2017-Oct-14 06:22N 36°11' W 007°35'4 9.1
2017-Oct-14 05:59N 36°12' W 007°39'5 8.8
2017-Oct-14 05:28N 36°14' W 007°45'4 9.4
2017-Oct-14 05:01N 36°15' W 007°50'7 9.7
2017-Oct-14 04:18N 36°17' W 007°58'4 9.7
2017-Oct-14 03:53N 36°18' W 008°03'4 9.6
2017-Oct-14 03:28N 36°19' W 008°08'4 9.5
2017-Oct-14 03:00N 36°20' W 008°13'5 9.5
2017-Oct-14 02:29N 36°21' W 008°19'5 9.5
2017-Oct-14 02:00N 36°22' W 008°24'5 9.7
2017-Oct-14 01:28N 36°24' W 008°30'4 9.8
2017-Oct-14 01:00N 36°25' W 008°36'610.3
2017-Oct-14 00:26N 36°26' W 008°43'4 9.8
2017-Oct-14 00:00N 36°27' W 008°48'5 9.8
2017-Oct-13 23:29N 36°28' W 008°54'510.0
2017-Oct-13 23:00N 36°30' W 008°60'610.3
2017-Oct-13 22:27N 36°31' W 009°07'510.4
2017-Oct-13 21:59N 36°33' W 009°12'5 9.9
2017-Oct-13 21:30N 36°35' W 009°18'610.4
2017-Oct-13 20:57N 36°39' W 009°23'410.1
2017-Oct-13 20:31N 36°42' W 009°26'510.6
2017-Oct-13 20:00N 36°46' W 009°31'510.0
2017-Oct-13 19:30N 36°51' W 009°34'510.2
2017-Oct-13 19:00N 36°56' W 009°35'510.3
2017-Oct-13 18:29N 37°01' W 009°37'810.7
2017-Oct-13 17:44N 37°09' W 009°39'510.4
2017-Oct-13 17:13N 37°14' W 009°41'310.3
2017-Oct-13 16:56N 37°17' W 009°42'1210.3
2017-Oct-13 15:46N 37°29' W 009°45'310.1
2017-Oct-13 15:30N 37°31' W 009°46'1010.2
2017-Oct-13 14:29N 37°41' W 009°48'510.5
2017-Oct-13 14:00N 37°46' W 009°50'611.2
2017-Oct-13 13:30N 37°52' W 009°51'611.0
2017-Oct-13 12:55N 37°58' W 009°53'410.9
2017-Oct-13 12:30N 38°02' W 009°54'510.6
2017-Oct-13 12:00N 38°08' W 009°56'510.2
2017-Oct-13 11:30N 38°13' W 009°58'510.2
2017-Oct-13 10:59N 38°18' W 009°59'510.2
2017-Oct-13 10:30N 38°22' W 010°01'510.5
2017-Oct-13 10:00N 38°28' W 010°02'610.6
2017-Oct-13 09:28N 38°33' W 010°03'710.9
2017-Oct-13 08:52N 38°39' W 010°05'410.9
2017-Oct-13 08:28N 38°44' W 010°06'510.7
2017-Oct-13 08:01N 38°49' W 010°06'510.8
2017-Oct-13 07:30N 38°54' W 010°06'510.5
2017-Oct-13 07:00N 38°59' W 010°06'5 9.9
2017-Oct-13 06:30N 39°04' W 010°06'510.1
2017-Oct-13 06:00N 39°10' W 010°06'610.3
2017-Oct-13 05:25N 39°16' W 010°06'710.3
2017-Oct-13 04:41N 39°23' W 010°06'11510.4
2017-Oct-12 17:35N 41°18' W 010°07'410.7
2017-Oct-12 17:13N 41°22' W 010°07'310.7
2017-Oct-12 16:58N 41°25' W 010°07'41910.2
2017-Oct-10 23:58N 47°56' W 006°36'1111.5
2017-Oct-10 22:58N 48°06' W 006°27'1910.8
2017-Oct-10 21:13N 48°22' W 006°13'310.4
2017-Oct-10 20:58N 48°24' W 006°12'83 9.4
2017-Oct-10 12:07N 49°20' W 004°38'45 9.8
2017-Oct-10 07:30N 49°43' W 003°38'10 9.5
2017-Oct-10 06:27N 49°49' W 003°25'510.3
2017-Oct-10 06:01N 49°51' W 003°19'511.0
2017-Oct-10 05:31N 49°54' W 003°12'611.8
2017-Oct-10 05:01N 49°57' W 003°04'612.4
2017-Oct-10 04:30N 50°01' W 002°56'812.8
2017-Oct-10 03:54N 50°02' W 002°44'94 9.7
2017-Oct-09 18:17N 50°28' W 000°23'312.2
2017-Oct-09 18:00N 50°29' W 000°18'611.2
2017-Oct-09 17:31N 50°30' W 000°09'612.0
2017-Oct-09 17:01N 50°31' W 000°00'611.8
2017-Oct-09 16:31N 50°33' E 000°09'611.6
2017-Oct-09 16:01N 50°35' E 000°17'611.4
2017-Oct-09 15:30N 50°37' E 000°26'510.9
2017-Oct-09 15:01N 50°38' E 000°34'510.4
2017-Oct-09 14:31N 50°41' E 000°41'5 9.8
2017-Oct-09 14:01N 50°44' E 000°47'5 9.3
2017-Oct-09 13:31N 50°46' E 000°53'5 9.2
2017-Oct-09 13:00N 50°49' E 000°60'6 9.2
2017-Oct-09 12:20N 50°53' E 001°07'3 9.5
2017-Oct-09 11:59N 50°55' E 001°11'510.1
2017-Oct-09 11:29N 50°59' E 001°17'511.3
2017-Oct-09 11:01N 51°02' E 001°24'713.3
2017-Oct-09 10:31N 51°06' E 001°32'714.3
2017-Oct-09 10:00N 51°11' E 001°40'713.7
2017-Oct-09 09:30N 51°16' E 001°48'713.0
2017-Oct-09 09:00N 51°21' E 001°54'510.9
2017-Oct-09 08:31N 51°25' E 002°00'611.0
2017-Oct-09 08:01N 51°22' E 002°09'611.2
2017-Oct-09 07:30N 51°21' E 002°17'611.3
2017-Oct-09 07:00N 51°22' E 002°26'510.6
2017-Oct-09 06:30N 51°23' E 002°34'8 9.5
2017-Oct-09 05:41N 51°22' E 002°47'210.2
2017-Oct-09 05:30N 51°23' E 002°50'5 9.9
2017-Oct-09 05:00N 51°24' E 002°57'5 9.3
2017-Oct-09 04:30N 51°24' E 003°05'5 9.5
2017-Oct-09 04:00N 51°25' E 003°12'5 9.0
2017-Oct-09 03:30N 51°25' E 003°19'4 9.0
2017-Oct-09 03:01N 51°25' E 003°27'4 8.2
2017-Oct-09 02:30N 51°26' E 003°33'4 7.0
2017-Oct-09 02:00N 51°26' E 003°39'3 6.8
2017-Oct-09 01:31N 51°24' E 003°43'4 8.6
2017-Oct-09 01:00N 51°21' E 003°48'4 8.4
2017-Oct-09 00:30N 51°22' E 003°54'4 8.5
2017-Oct-09 00:00N 51°25' E 003°58'3 6.1
2017-Oct-08 23:31N 51°24' E 004°02'4 8.8
2017-Oct-08 23:00N 51°23' E 004°09'4 8.1
2017-Oct-08 22:30N 51°21' E 004°15'1 2.9
2017-Oct-08 22:00N 51°21' E 004°17'0 0.1
2017-Oct-08 21:30N 51°21' E 004°17'1 1.5
2017-Oct-08 21:00N 51°22' E 004°17'0 0.4
2017-Oct-08 20:30N 51°22' E 004°17'0 0.0
2017-Oct-08 19:58N 51°22' E 004°17'0 0.0
2017-Oct-08 19:22N 51°22' E 004°17'0 0.0
2017-Oct-08 18:55N 51°22' E 004°17'0 0.0
2017-Oct-08 18:28N 51°22' E 004°17'0 0.0
2017-Oct-08 17:55N 51°22' E 004°17'0 0.0
2017-Oct-08 17:25N 51°22' E 004°17'0 0.0
2017-Oct-08 16:58N 51°22' E 004°17'0 0.0
2017-Oct-08 16:22N 51°22' E 004°17'0 0.0
2017-Oct-08 15:58N 51°22' E 004°17'0 0.0
2017-Oct-08 14:46N 51°22' E 004°17'0 0.0
2017-Oct-08 14:25N 51°22' E 004°17'0 0.0
2017-Oct-08 13:58N 51°22' E 004°17'0 0.0
2017-Oct-08 13:28N 51°22' E 004°17'0 0.0
2017-Oct-08 12:58N 51°22' E 004°17'  
Track history (hours):
 
Tides and Currents Weather Stations Pressure Air Temp Water Temp Dewpoint Dewpoint Depression Visibility Wind Speed Wind Dir Waves Ship Positions

Ventura

Last reported at 2017-Oct-18 12:31 UTC. Time now 2017-Oct-18 12:51 UTC.
Position N 36°50' E 013°49'.

Length 106 m; draft 6.3 m.

Type: Cargo ship. MMSI: 305994000.

Date/timePositionNaut miles runAvg speedWind from/ knotsBaromVisibWave heightAir tempDewpointWater temp
2017-Oct-18 12:31N 36°50' E 013°49'610.5
2017-Oct-18 11:58N 36°51' E 013°42'  
2017-Oct-16 07:28N 36°58' E 002°25'1510.3
2017-Oct-16 06:02N 36°55' E 002°06'110.3
2017-Oct-16 05:57N 36°55' E 002°05'68 9.8
2017-Oct-15 23:02N 36°44' E 000°41'0 9.4
2017-Oct-15 23:00N 36°44' E 000°41'5 9.5
2017-Oct-15 22:31N 36°44' E 000°35'10 9.7
2017-Oct-15 21:29N 36°42' E 000°23'11 9.7
2017-Oct-15 20:21N 36°40' E 000°09'3 9.8
2017-Oct-15 20:00N 36°40' E 000°05'26 9.9
2017-Oct-15 17:21N 36°36' W 000°27'3 9.8
2017-Oct-15 17:00N 36°35' W 000°31'5 9.8
2017-Oct-15 16:30N 36°34' W 000°37'5 9.7
2017-Oct-15 16:00N 36°34' W 000°43'21910.0
2017-Oct-14 18:09N 35°60' W 005°12'211.7
2017-Oct-14 18:00N 35°59' W 005°14'611.9
2017-Oct-14 17:31N 35°58' W 005°22'611.3
2017-Oct-14 17:00N 35°57' W 005°28'21 9.8
2017-Oct-14 14:53N 35°54' W 005°54'68 9.9
2017-Oct-14 08:00N 36°07' W 007°16'5 9.6
2017-Oct-14 07:29N 36°09' W 007°22'5 9.4
2017-Oct-14 06:58N 36°10' W 007°28'6 9.6
2017-Oct-14 06:22N 36°11' W 007°35'4 9.1
2017-Oct-14 05:59N 36°12' W 007°39'5 8.8
2017-Oct-14 05:28N 36°14' W 007°45'4 9.4
2017-Oct-14 05:01N 36°15' W 007°50'7 9.7
2017-Oct-14 04:18N 36°17' W 007°58'4 9.7
2017-Oct-14 03:53N 36°18' W 008°03'4 9.6
2017-Oct-14 03:28N 36°19' W 008°08'4 9.5
2017-Oct-14 03:00N 36°20' W 008°13'5 9.5
2017-Oct-14 02:29N 36°21' W 008°19'5 9.5
2017-Oct-14 02:00N 36°22' W 008°24'5 9.7
2017-Oct-14 01:28N 36°24' W 008°30'4 9.8
2017-Oct-14 01:00N 36°25' W 008°36'610.3
2017-Oct-14 00:26N 36°26' W 008°43'4 9.8
2017-Oct-14 00:00N 36°27' W 008°48'5 9.8
2017-Oct-13 23:29N 36°28' W 008°54'510.0
2017-Oct-13 23:00N 36°30' W 008°60'610.3
2017-Oct-13 22:27N 36°31' W 009°07'510.4
2017-Oct-13 21:59N 36°33' W 009°12'5 9.9
2017-Oct-13 21:30N 36°35' W 009°18'610.4
2017-Oct-13 20:57N 36°39' W 009°23'410.1
2017-Oct-13 20:31N 36°42' W 009°26'510.6
2017-Oct-13 20:00N 36°46' W 009°31'510.0
2017-Oct-13 19:30N 36°51' W 009°34'510.2
2017-Oct-13 19:00N 36°56' W 009°35'510.3
2017-Oct-13 18:29N 37°01' W 009°37'810.7
2017-Oct-13 17:44N 37°09' W 009°39'510.4
2017-Oct-13 17:13N 37°14' W 009°41'310.3
2017-Oct-13 16:56N 37°17' W 009°42'1210.3
2017-Oct-13 15:46N 37°29' W 009°45'310.1
2017-Oct-13 15:30N 37°31' W 009°46'1010.2
2017-Oct-13 14:29N 37°41' W 009°48'510.5
2017-Oct-13 14:00N 37°46' W 009°50'611.2
2017-Oct-13 13:30N 37°52' W 009°51'611.0
2017-Oct-13 12:55N 37°58' W 009°53'410.9
2017-Oct-13 12:30N 38°02' W 009°54'510.6
2017-Oct-13 12:00N 38°08' W 009°56'510.2
2017-Oct-13 11:30N 38°13' W 009°58'510.2
2017-Oct-13 10:59N 38°18' W 009°59'510.2
2017-Oct-13 10:30N 38°22' W 010°01'510.5
2017-Oct-13 10:00N 38°28' W 010°02'610.6
2017-Oct-13 09:28N 38°33' W 010°03'710.9
2017-Oct-13 08:52N 38°39' W 010°05'410.9
2017-Oct-13 08:28N 38°44' W 010°06'510.7
2017-Oct-13 08:01N 38°49' W 010°06'510.8
2017-Oct-13 07:30N 38°54' W 010°06'510.5
2017-Oct-13 07:00N 38°59' W 010°06'5 9.9
2017-Oct-13 06:30N 39°04' W 010°06'510.1
2017-Oct-13 06:00N 39°10' W 010°06'610.3
2017-Oct-13 05:25N 39°16' W 010°06'710.3
2017-Oct-13 04:41N 39°23' W 010°06'11510.4
2017-Oct-12 17:35N 41°18' W 010°07'410.7
2017-Oct-12 17:13N 41°22' W 010°07'310.7
2017-Oct-12 16:58N 41°25' W 010°07'41910.2
2017-Oct-10 23:58N 47°56' W 006°36'1111.5
2017-Oct-10 22:58N 48°06' W 006°27'1910.8
2017-Oct-10 21:13N 48°22' W 006°13'310.4
2017-Oct-10 20:58N 48°24' W 006°12'83 9.4
2017-Oct-10 12:07N 49°20' W 004°38'45 9.8
2017-Oct-10 07:30N 49°43' W 003°38'10 9.5
2017-Oct-10 06:27N 49°49' W 003°25'510.3
2017-Oct-10 06:01N 49°51' W 003°19'511.0
2017-Oct-10 05:31N 49°54' W 003°12'611.8
2017-Oct-10 05:01N 49°57' W 003°04'612.4
2017-Oct-10 04:30N 50°01' W 002°56'812.8
2017-Oct-10 03:54N 50°02' W 002°44'94 9.7
2017-Oct-09 18:17N 50°28' W 000°23'312.2
2017-Oct-09 18:00N 50°29' W 000°18'611.2
2017-Oct-09 17:31N 50°30' W 000°09'612.0
2017-Oct-09 17:01N 50°31' W 000°00'611.8
2017-Oct-09 16:31N 50°33' E 000°09'611.6
2017-Oct-09 16:01N 50°35' E 000°17'611.4
2017-Oct-09 15:30N 50°37' E 000°26'510.9
2017-Oct-09 15:01N 50°38' E 000°34'510.4
2017-Oct-09 14:31N 50°41' E 000°41'5 9.8
2017-Oct-09 14:01N 50°44' E 000°47'5 9.3
2017-Oct-09 13:31N 50°46' E 000°53'5 9.2
2017-Oct-09 13:00N 50°49' E 000°60'6 9.2
2017-Oct-09 12:20N 50°53' E 001°07'3 9.5
2017-Oct-09 11:59N 50°55' E 001°11'510.1
2017-Oct-09 11:29N 50°59' E 001°17'511.3
2017-Oct-09 11:01N 51°02' E 001°24'713.3
2017-Oct-09 10:31N 51°06' E 001°32'714.3
2017-Oct-09 10:00N 51°11' E 001°40'713.7
2017-Oct-09 09:30N 51°16' E 001°48'713.0
2017-Oct-09 09:00N 51°21' E 001°54'510.9
2017-Oct-09 08:31N 51°25' E 002°00'611.0
2017-Oct-09 08:01N 51°22' E 002°09'611.2
2017-Oct-09 07:30N 51°21' E 002°17'611.3
2017-Oct-09 07:00N 51°22' E 002°26'510.6
2017-Oct-09 06:30N 51°23' E 002°34'8 9.5
2017-Oct-09 05:41N 51°22' E 002°47'210.2
2017-Oct-09 05:30N 51°23' E 002°50'5 9.9
2017-Oct-09 05:00N 51°24' E 002°57'5 9.3
2017-Oct-09 04:30N 51°24' E 003°05'5 9.5
2017-Oct-09 04:00N 51°25' E 003°12'5 9.0
2017-Oct-09 03:30N 51°25' E 003°19'4 9.0
2017-Oct-09 03:01N 51°25' E 003°27'4 8.2
2017-Oct-09 02:30N 51°26' E 003°33'4 7.0
2017-Oct-09 02:00N 51°26' E 003°39'3 6.8
2017-Oct-09 01:31N 51°24' E 003°43'4 8.6
2017-Oct-09 01:00N 51°21' E 003°48'4 8.4
2017-Oct-09 00:30N 51°22' E 003°54'4 8.5
2017-Oct-09 00:00N 51°25' E 003°58'3 6.1
2017-Oct-08 23:31N 51°24' E 004°02'4 8.8
2017-Oct-08 23:00N 51°23' E 004°09'4 8.1
2017-Oct-08 22:30N 51°21' E 004°15'1 2.9
2017-Oct-08 22:00N 51°21' E 004°17'0 0.1
2017-Oct-08 21:30N 51°21' E 004°17'1 1.5
2017-Oct-08 21:00N 51°22' E 004°17'0 0.4
2017-Oct-08 20:30N 51°22' E 004°17'0 0.0
2017-Oct-08 19:58N 51°22' E 004°17'0 0.0
2017-Oct-08 19:22N 51°22' E 004°17'0 0.0
2017-Oct-08 18:55N 51°22' E 004°17'0 0.0
2017-Oct-08 18:28N 51°22' E 004°17'0 0.0
2017-Oct-08 17:55N 51°22' E 004°17'0 0.0
2017-Oct-08 17:25N 51°22' E 004°17'0 0.0
2017-Oct-08 16:58N 51°22' E 004°17'0 0.0
2017-Oct-08 16:22N 51°22' E 004°17'0 0.0
2017-Oct-08 15:58N 51°22' E 004°17'0 0.0
2017-Oct-08 14:46N 51°22' E 004°17'0 0.0
2017-Oct-08 14:25N 51°22' E 004°17'0 0.0
2017-Oct-08 13:58N 51°22' E 004°17'0 0.0
2017-Oct-08 13:28N 51°22' E 004°17'0 0.0
2017-Oct-08 12:58N 51°22' E 004°17'  

Dump ship's entire track history